sensor_id;sensor_type;location;lat;lon;timestamp;temperature;humidity
20526;DHT22;10421;49.142;9.232;2023-03-25T00:02:31;12.30;97.80
20526;DHT22;10421;49.142;9.232;2023-03-25T00:04:59;12.10;97.90
20526;DHT22;10421;49.142;9.232;2023-03-25T00:07:28;12.10;98.00
20526;DHT22;10421;49.142;9.232;2023-03-25T00:09:57;12.10;98.00
20526;DHT22;10421;49.142;9.232;2023-03-25T00:12:24;12.10;98.00
20526;DHT22;10421;49.142;9.232;2023-03-25T00:14:52;12.10;97.90
20526;DHT22;10421;49.142;9.232;2023-03-25T00:17:20;12.10;98.20
20526;DHT22;10421;49.142;9.232;2023-03-25T00:19:46;12.10;97.80
20526;DHT22;10421;49.142;9.232;2023-03-25T00:22:15;12.10;97.90
20526;DHT22;10421;49.142;9.232;2023-03-25T00:24:42;12.10;97.90
20526;DHT22;10421;49.142;9.232;2023-03-25T00:27:10;12.10;97.80
20526;DHT22;10421;49.142;9.232;2023-03-25T00:29:38;12.20;97.80
20526;DHT22;10421;49.142;9.232;2023-03-25T00:32:05;12.10;97.50
20526;DHT22;10421;49.142;9.232;2023-03-25T00:34:32;12.10;97.70
20526;DHT22;10421;49.142;9.232;2023-03-25T00:36:59;12.10;97.50
20526;DHT22;10421;49.142;9.232;2023-03-25T00:39:26;12.20;97.40
20526;DHT22;10421;49.142;9.232;2023-03-25T00:41:53;12.20;97.20
20526;DHT22;10421;49.142;9.232;2023-03-25T00:44:22;12.10;97.00
20526;DHT22;10421;49.142;9.232;2023-03-25T00:46:49;12.20;97.00
20526;DHT22;10421;49.142;9.232;2023-03-25T00:49:16;12.10;96.90
20526;DHT22;10421;49.142;9.232;2023-03-25T00:51:42;12.10;96.90
20526;DHT22;10421;49.142;9.232;2023-03-25T00:54:10;12.10;96.90
20526;DHT22;10421;49.142;9.232;2023-03-25T00:56:37;12.20;96.90
20526;DHT22;10421;49.142;9.232;2023-03-25T00:59:03;12.10;96.80
20526;DHT22;10421;49.142;9.232;2023-03-25T01:01:31;12.10;96.70
20526;DHT22;10421;49.142;9.232;2023-03-25T01:03:58;12.20;96.70
20526;DHT22;10421;49.142;9.232;2023-03-25T01:06:27;12.20;96.60
20526;DHT22;10421;49.142;9.232;2023-03-25T01:08:55;12.30;96.50
20526;DHT22;10421;49.142;9.232;2023-03-25T01:11:24;12.40;96.40
20526;DHT22;10421;49.142;9.232;2023-03-25T01:13:53;12.40;96.20
20526;DHT22;10421;49.142;9.232;2023-03-25T01:16:21;12.40;96.10
20526;DHT22;10421;49.142;9.232;2023-03-25T01:18:49;12.40;96.00
20526;DHT22;10421;49.142;9.232;2023-03-25T01:21:16;12.40;96.00
20526;DHT22;10421;49.142;9.232;2023-03-25T01:23:42;12.50;96.00
20526;DHT22;10421;49.142;9.232;2023-03-25T01:26:09;12.40;96.00
20526;DHT22;10421;49.142;9.232;2023-03-25T01:28:37;12.30;96.20
20526;DHT22;10421;49.142;9.232;2023-03-25T01:31:05;12.30;96.30
20526;DHT22;10421;49.142;9.232;2023-03-25T01:33:33;12.30;96.30
20526;DHT22;10421;49.142;9.232;2023-03-25T01:36:02;12.30;96.20
20526;DHT22;10421;49.142;9.232;2023-03-25T01:38:29;12.30;96.20
20526;DHT22;10421;49.142;9.232;2023-03-25T01:40:56;12.30;96.30
20526;DHT22;10421;49.142;9.232;2023-03-25T01:43:23;12.30;96.30
20526;DHT22;10421;49.142;9.232;2023-03-25T01:45:50;12.30;96.20
20526;DHT22;10421;49.142;9.232;2023-03-25T01:48:19;12.20;96.30
20526;DHT22;10421;49.142;9.232;2023-03-25T01:50:52;12.10;96.40
20526;DHT22;10421;49.142;9.232;2023-03-25T01:53:21;12.10;96.30
20526;DHT22;10421;49.142;9.232;2023-03-25T01:55:48;12.20;96.40
20526;DHT22;10421;49.142;9.232;2023-03-25T01:58:17;12.20;96.50
20526;DHT22;10421;49.142;9.232;2023-03-25T02:00:45;12.20;96.50
20526;DHT22;10421;49.142;9.232;2023-03-25T02:03:13;12.10;96.40
20526;DHT22;10421;49.142;9.232;2023-03-25T02:05:45;12.00;96.40
20526;DHT22;10421;49.142;9.232;2023-03-25T02:08:14;12.00;96.50
20526;DHT22;10421;49.142;9.232;2023-03-25T02:10:45;12.00;96.40
20526;DHT22;10421;49.142;9.232;2023-03-25T02:13:13;12.00;96.40
20526;DHT22;10421;49.142;9.232;2023-03-25T02:18:37;11.80;96.50
20526;DHT22;10421;49.142;9.232;2023-03-25T02:21:30;11.80;96.70
20526;DHT22;10421;49.142;9.232;2023-03-25T02:24:23;11.90;96.60
20526;DHT22;10421;49.142;9.232;2023-03-25T02:27:20;11.90;96.70
20526;DHT22;10421;49.142;9.232;2023-03-25T02:30:15;11.70;97.60
20526;DHT22;10421;49.142;9.232;2023-03-25T02:33:05;11.60;97.90
20526;DHT22;10421;49.142;9.232;2023-03-25T02:35:51;11.30;98.00
20526;DHT22;10421;49.142;9.232;2023-03-25T02:38:33;11.30;98.00
20526;DHT22;10421;49.142;9.232;2023-03-25T02:41:05;11.30;97.60
20526;DHT22;10421;49.142;9.232;2023-03-25T02:43:36;11.20;97.60
20526;DHT22;10421;49.142;9.232;2023-03-25T02:46:07;11.10;97.40
20526;DHT22;10421;49.142;9.232;2023-03-25T02:48:38;11.00;97.50
20526;DHT22;10421;49.142;9.232;2023-03-25T02:51:10;11.00;97.50
20526;DHT22;10421;49.142;9.232;2023-03-25T02:53:42;11.00;97.60
20526;DHT22;10421;49.142;9.232;2023-03-25T02:56:12;10.90;97.70
20526;DHT22;10421;49.142;9.232;2023-03-25T02:58:43;10.80;97.80
20526;DHT22;10421;49.142;9.232;2023-03-25T03:01:10;10.80;97.70
20526;DHT22;10421;49.142;9.232;2023-03-25T03:03:39;10.70;97.80
20526;DHT22;10421;49.142;9.232;2023-03-25T03:06:07;10.80;97.80
20526;DHT22;10421;49.142;9.232;2023-03-25T03:08:53;10.80;97.80
20526;DHT22;10421;49.142;9.232;2023-03-25T03:11:25;10.80;97.60
20526;DHT22;10421;49.142;9.232;2023-03-25T03:14:04;10.80;97.40
20526;DHT22;10421;49.142;9.232;2023-03-25T03:16:41;10.80;96.90
20526;DHT22;10421;49.142;9.232;2023-03-25T03:19:19;10.80;96.80
20526;DHT22;10421;49.142;9.232;2023-03-25T03:21:55;10.90;96.80
20526;DHT22;10421;49.142;9.232;2023-03-25T03:24:29;10.80;96.80
20526;DHT22;10421;49.142;9.232;2023-03-25T03:26:59;10.80;96.20
20526;DHT22;10421;49.142;9.232;2023-03-25T03:29:35;10.80;96.30
20526;DHT22;10421;49.142;9.232;2023-03-25T03:32:06;10.80;96.40
20526;DHT22;10421;49.142;9.232;2023-03-25T03:34:38;10.90;96.30
20526;DHT22;10421;49.142;9.232;2023-03-25T03:37:09;10.90;96.20
20526;DHT22;10421;49.142;9.232;2023-03-25T03:39:39;10.90;96.20
20526;DHT22;10421;49.142;9.232;2023-03-25T03:42:12;10.80;96.10
20526;DHT22;10421;49.142;9.232;2023-03-25T03:44:43;10.90;96.20
20526;DHT22;10421;49.142;9.232;2023-03-25T03:47:14;10.80;96.20
20526;DHT22;10421;49.142;9.232;2023-03-25T03:49:44;10.80;96.40
20526;DHT22;10421;49.142;9.232;2023-03-25T03:52:14;10.80;96.40
20526;DHT22;10421;49.142;9.232;2023-03-25T03:54:47;10.70;96.50
20526;DHT22;10421;49.142;9.232;2023-03-25T03:57:18;10.60;96.80
20526;DHT22;10421;49.142;9.232;2023-03-25T03:59:50;10.60;97.00
20526;DHT22;10421;49.142;9.232;2023-03-25T04:02:23;10.40;97.40
20526;DHT22;10421;49.142;9.232;2023-03-25T04:04:52;10.40;97.60
20526;DHT22;10421;49.142;9.232;2023-03-25T04:07:22;10.40;97.80
20526;DHT22;10421;49.142;9.232;2023-03-25T04:09:59;10.40;97.90
20526;DHT22;10421;49.142;9.232;2023-03-25T04:12:30;10.40;98.00
20526;DHT22;10421;49.142;9.232;2023-03-25T04:14:59;10.40;98.00
20526;DHT22;10421;49.142;9.232;2023-03-25T04:17:26;10.30;98.00
20526;DHT22;10421;49.142;9.232;2023-03-25T04:19:54;10.20;97.90
20526;DHT22;10421;49.142;9.232;2023-03-25T04:22:21;10.30;97.90
20526;DHT22;10421;49.142;9.232;2023-03-25T04:24:49;10.30;97.80
20526;DHT22;10421;49.142;9.232;2023-03-25T04:27:18;10.30;97.80
20526;DHT22;10421;49.142;9.232;2023-03-25T04:29:47;10.40;97.60
20526;DHT22;10421;49.142;9.232;2023-03-25T04:32:16;10.40;97.50
20526;DHT22;10421;49.142;9.232;2023-03-25T04:34:43;10.40;97.30
20526;DHT22;10421;49.142;9.232;2023-03-25T04:37:11;10.40;97.00
20526;DHT22;10421;49.142;9.232;2023-03-25T04:39:38;10.50;97.00
20526;DHT22;10421;49.142;9.232;2023-03-25T04:42:05;10.60;97.00
20526;DHT22;10421;49.142;9.232;2023-03-25T04:44:34;10.60;96.70
20526;DHT22;10421;49.142;9.232;2023-03-25T04:47:03;10.70;96.70
20526;DHT22;10421;49.142;9.232;2023-03-25T04:49:30;10.70;96.40
20526;DHT22;10421;49.142;9.232;2023-03-25T04:51:57;10.80;96.30
20526;DHT22;10421;49.142;9.232;2023-03-25T04:54:26;10.70;95.90
20526;DHT22;10421;49.142;9.232;2023-03-25T04:56:53;10.60;96.20
20526;DHT22;10421;49.142;9.232;2023-03-25T04:59:21;10.70;96.20
20526;DHT22;10421;49.142;9.232;2023-03-25T05:01:50;10.70;96.10
20526;DHT22;10421;49.142;9.232;2023-03-25T05:04:17;10.60;95.90
20526;DHT22;10421;49.142;9.232;2023-03-25T05:06:46;10.70;95.90
20526;DHT22;10421;49.142;9.232;2023-03-25T05:09:15;10.70;95.60
20526;DHT22;10421;49.142;9.232;2023-03-25T05:11:44;10.80;95.50
20526;DHT22;10421;49.142;9.232;2023-03-25T05:14:12;10.90;95.40
20526;DHT22;10421;49.142;9.232;2023-03-25T05:16:40;10.90;95.10
20526;DHT22;10421;49.142;9.232;2023-03-25T05:19:08;10.90;94.90
20526;DHT22;10421;49.142;9.232;2023-03-25T05:21:36;10.90;94.90
20526;DHT22;10421;49.142;9.232;2023-03-25T05:24:04;10.90;95.00
20526;DHT22;10421;49.142;9.232;2023-03-25T05:26:32;11.00;94.90
20526;DHT22;10421;49.142;9.232;2023-03-25T05:29:00;10.90;95.00
20526;DHT22;10421;49.142;9.232;2023-03-25T05:31:27;10.90;95.10
20526;DHT22;10421;49.142;9.232;2023-03-25T05:33:54;11.00;95.00
20526;DHT22;10421;49.142;9.232;2023-03-25T05:36:22;11.10;94.80
20526;DHT22;10421;49.142;9.232;2023-03-25T05:38:50;11.00;94.90
20526;DHT22;10421;49.142;9.232;2023-03-25T05:41:19;10.90;95.10
20526;DHT22;10421;49.142;9.232;2023-03-25T05:43:47;11.00;95.10
20526;DHT22;10421;49.142;9.232;2023-03-25T05:46:16;11.10;95.20
20526;DHT22;10421;49.142;9.232;2023-03-25T05:48:44;11.10;95.30
20526;DHT22;10421;49.142;9.232;2023-03-25T05:51:12;11.10;95.30
20526;DHT22;10421;49.142;9.232;2023-03-25T05:53:41;11.10;95.50
20526;DHT22;10421;49.142;9.232;2023-03-25T05:56:09;11.00;95.60
20526;DHT22;10421;49.142;9.232;2023-03-25T05:58:36;10.90;95.70
20526;DHT22;10421;49.142;9.232;2023-03-25T06:01:03;10.90;95.80
20526;DHT22;10421;49.142;9.232;2023-03-25T06:03:30;11.00;95.80
20526;DHT22;10421;49.142;9.232;2023-03-25T06:05:58;11.00;95.40
20526;DHT22;10421;49.142;9.232;2023-03-25T06:08:26;10.90;95.60
20526;DHT22;10421;49.142;9.232;2023-03-25T06:10:56;10.90;95.70
20526;DHT22;10421;49.142;9.232;2023-03-25T06:13:25;10.90;95.50
20526;DHT22;10421;49.142;9.232;2023-03-25T06:15:52;10.80;95.50
20526;DHT22;10421;49.142;9.232;2023-03-25T06:18:20;10.90;95.40
20526;DHT22;10421;49.142;9.232;2023-03-25T06:20:50;10.90;95.50
20526;DHT22;10421;49.142;9.232;2023-03-25T06:23:18;10.90;95.20
20526;DHT22;10421;49.142;9.232;2023-03-25T06:25:46;11.00;94.90
20526;DHT22;10421;49.142;9.232;2023-03-25T06:28:14;11.00;94.90
20526;DHT22;10421;49.142;9.232;2023-03-25T06:30:43;11.10;94.80
20526;DHT22;10421;49.142;9.232;2023-03-25T06:33:09;11.20;94.50
20526;DHT22;10421;49.142;9.232;2023-03-25T06:35:38;11.10;94.60
20526;DHT22;10421;49.142;9.232;2023-03-25T06:38:05;11.20;94.40
20526;DHT22;10421;49.142;9.232;2023-03-25T06:40:31;11.20;94.30
20526;DHT22;10421;49.142;9.232;2023-03-25T06:42:59;11.20;94.40
20526;DHT22;10421;49.142;9.232;2023-03-25T06:45:27;11.30;94.40
20526;DHT22;10421;49.142;9.232;2023-03-25T06:47:54;11.40;94.20
20526;DHT22;10421;49.142;9.232;2023-03-25T06:50:20;11.40;94.00
20526;DHT22;10421;49.142;9.232;2023-03-25T06:52:47;11.40;94.10
20526;DHT22;10421;49.142;9.232;2023-03-25T06:55:16;11.50;94.10
20526;DHT22;10421;49.142;9.232;2023-03-25T06:57:44;11.60;94.10
20526;DHT22;10421;49.142;9.232;2023-03-25T07:00:12;11.60;93.90
20526;DHT22;10421;49.142;9.232;2023-03-25T07:02:40;11.60;94.00
20526;DHT22;10421;49.142;9.232;2023-03-25T07:05:07;11.70;94.30
20526;DHT22;10421;49.142;9.232;2023-03-25T07:07:34;11.50;95.20
20526;DHT22;10421;49.142;9.232;2023-03-25T07:10:00;11.30;96.00
20526;DHT22;10421;49.142;9.232;2023-03-25T07:12:27;11.20;96.30
20526;DHT22;10421;49.142;9.232;2023-03-25T07:14:55;11.10;96.90
20526;DHT22;10421;49.142;9.232;2023-03-25T07:17:23;11.00;97.10
20526;DHT22;10421;49.142;9.232;2023-03-25T07:19:51;10.90;97.80
20526;DHT22;10421;49.142;9.232;2023-03-25T07:22:18;10.80;98.20
20526;DHT22;10421;49.142;9.232;2023-03-25T07:24:45;10.80;98.20
20526;DHT22;10421;49.142;9.232;2023-03-25T07:27:11;10.80;98.50
20526;DHT22;10421;49.142;9.232;2023-03-25T07:29:38;10.80;98.70
20526;DHT22;10421;49.142;9.232;2023-03-25T07:32:06;10.90;98.90
20526;DHT22;10421;49.142;9.232;2023-03-25T07:34:33;11.00;98.80
20526;DHT22;10421;49.142;9.232;2023-03-25T07:37:01;11.10;98.60
20526;DHT22;10421;49.142;9.232;2023-03-25T07:39:28;11.20;98.60
20526;DHT22;10421;49.142;9.232;2023-03-25T07:41:55;11.20;98.70
20526;DHT22;10421;49.142;9.232;2023-03-25T07:44:21;11.30;98.70
20526;DHT22;10421;49.142;9.232;2023-03-25T07:46:48;11.40;98.50
20526;DHT22;10421;49.142;9.232;2023-03-25T07:49:15;11.50;98.50
20526;DHT22;10421;49.142;9.232;2023-03-25T07:51:42;11.50;98.20
20526;DHT22;10421;49.142;9.232;2023-03-25T07:54:11;11.50;97.80
20526;DHT22;10421;49.142;9.232;2023-03-25T07:56:37;11.50;97.70
20526;DHT22;10421;49.142;9.232;2023-03-25T07:59:04;11.50;97.80
20526;DHT22;10421;49.142;9.232;2023-03-25T08:01:31;11.60;97.70
20526;DHT22;10421;49.142;9.232;2023-03-25T08:03:58;11.70;96.90
20526;DHT22;10421;49.142;9.232;2023-03-25T08:06:25;11.80;97.10
20526;DHT22;10421;49.142;9.232;2023-03-25T08:08:52;11.80;96.80
20526;DHT22;10421;49.142;9.232;2023-03-25T08:11:21;11.90;96.60
20526;DHT22;10421;49.142;9.232;2023-03-25T08:13:48;11.90;96.20
20526;DHT22;10421;49.142;9.232;2023-03-25T08:16:15;11.90;96.40
20526;DHT22;10421;49.142;9.232;2023-03-25T08:18:42;12.00;96.10
20526;DHT22;10421;49.142;9.232;2023-03-25T08:21:10;12.00;95.90
20526;DHT22;10421;49.142;9.232;2023-03-25T08:23:37;11.90;96.00
20526;DHT22;10421;49.142;9.232;2023-03-25T08:26:04;11.80;96.00
20526;DHT22;10421;49.142;9.232;2023-03-25T08:28:32;11.80;96.00
20526;DHT22;10421;49.142;9.232;2023-03-25T08:30:59;11.80;95.80
20526;DHT22;10421;49.142;9.232;2023-03-25T08:33:27;11.80;95.80
20526;DHT22;10421;49.142;9.232;2023-03-25T08:35:59;12.00;96.40
20526;DHT22;10421;49.142;9.232;2023-03-25T08:38:26;12.10;96.20
20526;DHT22;10421;49.142;9.232;2023-03-25T08:40:56;12.20;94.80
20526;DHT22;10421;49.142;9.232;2023-03-25T08:43:23;12.20;95.20
20526;DHT22;10421;49.142;9.232;2023-03-25T08:45:51;12.10;95.40
20526;DHT22;10421;49.142;9.232;2023-03-25T08:48:18;12.20;95.20
20526;DHT22;10421;49.142;9.232;2023-03-25T08:50:47;12.30;95.10
20526;DHT22;10421;49.142;9.232;2023-03-25T08:53:14;12.30;94.60
20526;DHT22;10421;49.142;9.232;2023-03-25T08:55:41;12.40;94.50
20526;DHT22;10421;49.142;9.232;2023-03-25T08:58:08;12.50;94.40
20526;DHT22;10421;49.142;9.232;2023-03-25T09:00:36;12.60;94.60
20526;DHT22;10421;49.142;9.232;2023-03-25T09:03:08;12.40;94.50
20526;DHT22;10421;49.142;9.232;2023-03-25T09:05:35;12.50;94.60
20526;DHT22;10421;49.142;9.232;2023-03-25T09:08:04;12.50;94.50
20526;DHT22;10421;49.142;9.232;2023-03-25T09:10:31;12.50;94.60
20526;DHT22;10421;49.142;9.232;2023-03-25T09:12:59;12.60;94.80
20526;DHT22;10421;49.142;9.232;2023-03-25T09:15:26;12.40;94.00
20526;DHT22;10421;49.142;9.232;2023-03-25T09:17:53;12.30;94.20
20526;DHT22;10421;49.142;9.232;2023-03-25T09:20:22;12.10;94.80
20526;DHT22;10421;49.142;9.232;2023-03-25T09:22:49;12.00;95.00
20526;DHT22;10421;49.142;9.232;2023-03-25T09:25:16;11.90;95.20
20526;DHT22;10421;49.142;9.232;2023-03-25T09:27:43;12.00;95.00
20526;DHT22;10421;49.142;9.232;2023-03-25T09:30:11;11.90;95.30
20526;DHT22;10421;49.142;9.232;2023-03-25T09:32:39;11.70;95.20
20526;DHT22;10421;49.142;9.232;2023-03-25T09:35:07;11.70;95.10
20526;DHT22;10421;49.142;9.232;2023-03-25T09:37:35;11.60;94.70
20526;DHT22;10421;49.142;9.232;2023-03-25T09:40:03;11.60;94.80
20526;DHT22;10421;49.142;9.232;2023-03-25T09:42:46;11.70;94.70
20526;DHT22;10421;49.142;9.232;2023-03-25T09:45:24;11.70;95.10
20526;DHT22;10421;49.142;9.232;2023-03-25T09:47:58;11.70;94.80
20526;DHT22;10421;49.142;9.232;2023-03-25T09:50:28;11.60;95.20
20526;DHT22;10421;49.142;9.232;2023-03-25T09:53:00;11.60;95.30
20526;DHT22;10421;49.142;9.232;2023-03-25T09:55:31;11.70;95.30
20526;DHT22;10421;49.142;9.232;2023-03-25T09:58:01;11.70;95.20
20526;DHT22;10421;49.142;9.232;2023-03-25T10:00:30;11.80;95.30
20526;DHT22;10421;49.142;9.232;2023-03-25T10:03:14;11.90;95.30
20526;DHT22;10421;49.142;9.232;2023-03-25T10:06:02;12.00;95.00
20526;DHT22;10421;49.142;9.232;2023-03-25T10:08:43;12.00;95.00
20526;DHT22;10421;49.142;9.232;2023-03-25T10:11:22;12.10;95.30
20526;DHT22;10421;49.142;9.232;2023-03-25T10:13:56;12.20;95.40
20526;DHT22;10421;49.142;9.232;2023-03-25T10:16:29;12.30;95.50
20526;DHT22;10421;49.142;9.232;2023-03-25T10:19:18;12.20;95.70
20526;DHT22;10421;49.142;9.232;2023-03-25T10:21:50;12.20;95.60
20526;DHT22;10421;49.142;9.232;2023-03-25T10:24:22;12.20;95.40
20526;DHT22;10421;49.142;9.232;2023-03-25T10:26:53;12.30;95.70
20526;DHT22;10421;49.142;9.232;2023-03-25T10:29:26;12.40;95.70
20526;DHT22;10421;49.142;9.232;2023-03-25T10:31:59;12.60;95.70
20526;DHT22;10421;49.142;9.232;2023-03-25T10:34:33;12.60;94.50
20526;DHT22;10421;49.142;9.232;2023-03-25T10:37:03;12.60;94.30
20526;DHT22;10421;49.142;9.232;2023-03-25T10:39:33;12.60;94.70
20526;DHT22;10421;49.142;9.232;2023-03-25T10:42:03;12.60;94.70
20526;DHT22;10421;49.142;9.232;2023-03-25T10:44:37;12.60;94.60
20526;DHT22;10421;49.142;9.232;2023-03-25T10:47:06;12.60;95.00
20526;DHT22;10421;49.142;9.232;2023-03-25T10:49:34;12.60;94.90
20526;DHT22;10421;49.142;9.232;2023-03-25T10:52:02;12.50;95.20
20526;DHT22;10421;49.142;9.232;2023-03-25T10:54:32;12.60;95.10
20526;DHT22;10421;49.142;9.232;2023-03-25T10:57:05;12.70;95.00
20526;DHT22;10421;49.142;9.232;2023-03-25T10:59:36;12.90;94.60
20526;DHT22;10421;49.142;9.232;2023-03-25T11:02:12;13.00;94.70
20526;DHT22;10421;49.142;9.232;2023-03-25T11:04:41;13.10;93.90
20526;DHT22;10421;49.142;9.232;2023-03-25T11:07:16;13.10;93.80
20526;DHT22;10421;49.142;9.232;2023-03-25T11:09:44;13.20;94.00
20526;DHT22;10421;49.142;9.232;2023-03-25T11:12:16;13.30;94.40
20526;DHT22;10421;49.142;9.232;2023-03-25T11:14:43;13.40;94.20
20526;DHT22;10421;49.142;9.232;2023-03-25T11:17:14;13.40;93.90
20526;DHT22;10421;49.142;9.232;2023-03-25T11:19:46;13.40;93.50
20526;DHT22;10421;49.142;9.232;2023-03-25T11:22:21;13.50;93.70
20526;DHT22;10421;49.142;9.232;2023-03-25T11:24:54;13.50;93.60
20526;DHT22;10421;49.142;9.232;2023-03-25T11:27:26;13.40;93.50
20526;DHT22;10421;49.142;9.232;2023-03-25T11:29:56;13.40;93.70
20526;DHT22;10421;49.142;9.232;2023-03-25T11:32:34;13.40;93.80
20526;DHT22;10421;49.142;9.232;2023-03-25T11:35:05;13.30;93.10
20526;DHT22;10421;49.142;9.232;2023-03-25T11:37:43;13.30;93.60
20526;DHT22;10421;49.142;9.232;2023-03-25T11:40:14;13.30;95.00
20526;DHT22;10421;49.142;9.232;2023-03-25T11:42:46;13.40;95.90
20526;DHT22;10421;49.142;9.232;2023-03-25T11:45:21;13.50;96.20
20526;DHT22;10421;49.142;9.232;2023-03-25T11:47:49;13.50;96.10
20526;DHT22;10421;49.142;9.232;2023-03-25T11:50:20;13.50;96.30
20526;DHT22;10421;49.142;9.232;2023-03-25T11:52:47;13.50;96.00
20526;DHT22;10421;49.142;9.232;2023-03-25T11:55:19;13.60;96.10
20526;DHT22;10421;49.142;9.232;2023-03-25T11:57:49;13.70;96.10
20526;DHT22;10421;49.142;9.232;2023-03-25T12:00:27;13.80;95.70
20526;DHT22;10421;49.142;9.232;2023-03-25T12:03:00;13.90;94.30
20526;DHT22;10421;49.142;9.232;2023-03-25T12:05:27;14.10;93.80
20526;DHT22;10421;49.142;9.232;2023-03-25T12:08:02;14.10;93.20
20526;DHT22;10421;49.142;9.232;2023-03-25T12:10:38;14.20;91.80
20526;DHT22;10421;49.142;9.232;2023-03-25T12:13:14;14.30;91.00
20526;DHT22;10421;49.142;9.232;2023-03-25T12:15:49;14.50;91.10
20526;DHT22;10421;49.142;9.232;2023-03-25T12:18:38;14.60;90.60
20526;DHT22;10421;49.142;9.232;2023-03-25T12:21:17;14.50;90.70
20526;DHT22;10421;49.142;9.232;2023-03-25T12:23:53;14.70;90.10
20526;DHT22;10421;49.142;9.232;2023-03-25T12:26:30;14.90;89.50
20526;DHT22;10421;49.142;9.232;2023-03-25T12:29:07;15.10;87.00
20526;DHT22;10421;49.142;9.232;2023-03-25T12:31:47;15.20;86.30
20526;DHT22;10421;49.142;9.232;2023-03-25T12:34:23;15.30;86.20
20526;DHT22;10421;49.142;9.232;2023-03-25T12:36:58;15.50;85.20
20526;DHT22;10421;49.142;9.232;2023-03-25T12:39:41;15.70;84.20
20526;DHT22;10421;49.142;9.232;2023-03-25T12:42:19;15.60;82.60
20526;DHT22;10421;49.142;9.232;2023-03-25T12:45:02;15.60;83.90
20526;DHT22;10421;49.142;9.232;2023-03-25T12:47:34;15.50;85.50
20526;DHT22;10421;49.142;9.232;2023-03-25T12:50:15;15.30;87.30
20526;DHT22;10421;49.142;9.232;2023-03-25T12:52:49;15.20;87.90
20526;DHT22;10421;49.142;9.232;2023-03-25T12:55:27;15.10;88.30
20526;DHT22;10421;49.142;9.232;2023-03-25T12:58:15;15.00;88.60
20526;DHT22;10421;49.142;9.232;2023-03-25T13:00:55;15.10;88.70
20526;DHT22;10421;49.142;9.232;2023-03-25T13:06:28;15.00;87.70
20526;DHT22;10421;49.142;9.232;2023-03-25T13:09:02;15.00;87.40
20526;DHT22;10421;49.142;9.232;2023-03-25T13:11:34;15.10;87.20
20526;DHT22;10421;49.142;9.232;2023-03-25T13:14:06;15.20;87.30
20526;DHT22;10421;49.142;9.232;2023-03-25T13:16:37;15.20;87.10
20526;DHT22;10421;49.142;9.232;2023-03-25T13:19:10;15.30;86.70
20526;DHT22;10421;49.142;9.232;2023-03-25T13:21:42;15.50;84.80
20526;DHT22;10421;49.142;9.232;2023-03-25T13:24:13;15.30;80.50
20526;DHT22;10421;49.142;9.232;2023-03-25T13:26:43;15.10;81.00
20526;DHT22;10421;49.142;9.232;2023-03-25T13:29:24;15.00;81.10
20526;DHT22;10421;49.142;9.232;2023-03-25T13:31:57;14.90;81.30
20526;DHT22;10421;49.142;9.232;2023-03-25T13:34:27;15.00;82.60
20526;DHT22;10421;49.142;9.232;2023-03-25T13:37:05;15.30;82.10
20526;DHT22;10421;49.142;9.232;2023-03-25T13:39:50;15.40;82.00
20526;DHT22;10421;49.142;9.232;2023-03-25T13:42:23;15.40;81.70
20526;DHT22;10421;49.142;9.232;2023-03-25T13:44:53;15.60;80.90
20526;DHT22;10421;49.142;9.232;2023-03-25T13:47:27;15.80;80.90
20526;DHT22;10421;49.142;9.232;2023-03-25T13:49:59;15.80;77.10
20526;DHT22;10421;49.142;9.232;2023-03-25T13:52:32;15.70;76.30
20526;DHT22;10421;49.142;9.232;2023-03-25T13:55:08;15.60;75.30
20526;DHT22;10421;49.142;9.232;2023-03-25T13:58:14;15.60;77.00
20526;DHT22;10421;49.142;9.232;2023-03-25T14:04:08;16.20;74.60
20526;DHT22;10421;49.142;9.232;2023-03-25T14:06:49;16.50;72.40
20526;DHT22;10421;49.142;9.232;2023-03-25T14:12:21;16.60;68.30
20526;DHT22;10421;49.142;9.232;2023-03-25T14:14:57;16.30;68.60
20526;DHT22;10421;49.142;9.232;2023-03-25T14:17:26;16.30;69.20
20526;DHT22;10421;49.142;9.232;2023-03-25T14:19:58;16.30;69.10
20526;DHT22;10421;49.142;9.232;2023-03-25T14:22:26;16.20;66.20
20526;DHT22;10421;49.142;9.232;2023-03-25T14:24:55;16.10;66.50
20526;DHT22;10421;49.142;9.232;2023-03-25T14:27:23;16.10;66.80
20526;DHT22;10421;49.142;9.232;2023-03-25T14:29:55;16.10;68.20
20526;DHT22;10421;49.142;9.232;2023-03-25T14:32:35;16.20;69.70
20526;DHT22;10421;49.142;9.232;2023-03-25T14:38:20;16.00;73.50
20526;DHT22;10421;49.142;9.232;2023-03-25T14:40:52;16.00;74.20
20526;DHT22;10421;49.142;9.232;2023-03-25T14:43:25;16.10;70.60
20526;DHT22;10421;49.142;9.232;2023-03-25T14:46:11;15.90;69.70
20526;DHT22;10421;49.142;9.232;2023-03-25T14:48:44;15.70;68.60
20526;DHT22;10421;49.142;9.232;2023-03-25T14:51:20;15.60;69.30
20526;DHT22;10421;49.142;9.232;2023-03-25T14:53:53;15.50;70.20
20526;DHT22;10421;49.142;9.232;2023-03-25T14:56:23;15.40;70.20
20526;DHT22;10421;49.142;9.232;2023-03-25T15:01:20;15.70;70.90
20526;DHT22;10421;49.142;9.232;2023-03-25T15:04:10;15.90;71.30
20526;DHT22;10421;49.142;9.232;2023-03-25T15:06:39;16.10;71.90
20526;DHT22;10421;49.142;9.232;2023-03-25T15:09:09;16.30;71.60
20526;DHT22;10421;49.142;9.232;2023-03-25T15:11:39;16.30;70.20
20526;DHT22;10421;49.142;9.232;2023-03-25T15:14:08;16.30;69.80
20526;DHT22;10421;49.142;9.232;2023-03-25T15:16:56;16.20;69.00
20526;DHT22;10421;49.142;9.232;2023-03-25T15:19:23;16.20;68.00
20526;DHT22;10421;49.142;9.232;2023-03-25T15:22:17;16.20;66.50
20526;DHT22;10421;49.142;9.232;2023-03-25T15:25:04;16.20;67.50
20526;DHT22;10421;49.142;9.232;2023-03-25T15:27:52;16.20;68.30
20526;DHT22;10421;49.142;9.232;2023-03-25T15:30:54;16.30;67.70
20526;DHT22;10421;49.142;9.232;2023-03-25T15:33:34;16.40;67.90
20526;DHT22;10421;49.142;9.232;2023-03-25T15:36:23;16.50;68.50
20526;DHT22;10421;49.142;9.232;2023-03-25T15:39:18;16.50;69.40
20526;DHT22;10421;49.142;9.232;2023-03-25T15:42:11;16.60;68.70
20526;DHT22;10421;49.142;9.232;2023-03-25T15:45:08;16.60;68.90
20526;DHT22;10421;49.142;9.232;2023-03-25T15:47:57;16.60;68.30
20526;DHT22;10421;49.142;9.232;2023-03-25T15:50:45;16.70;69.00
20526;DHT22;10421;49.142;9.232;2023-03-25T15:53:38;16.50;68.30
20526;DHT22;10421;49.142;9.232;2023-03-25T15:56:09;16.40;67.90
20526;DHT22;10421;49.142;9.232;2023-03-25T15:58:42;16.40;68.10
20526;DHT22;10421;49.142;9.232;2023-03-25T16:01:19;16.50;68.20
20526;DHT22;10421;49.142;9.232;2023-03-25T16:03:55;16.70;68.20
20526;DHT22;10421;49.142;9.232;2023-03-25T16:06:23;16.80;68.20
20526;DHT22;10421;49.142;9.232;2023-03-25T16:08:54;16.80;66.80
20526;DHT22;10421;49.142;9.232;2023-03-25T16:11:25;16.80;66.30
20526;DHT22;10421;49.142;9.232;2023-03-25T16:14:10;16.80;65.10
20526;DHT22;10421;49.142;9.232;2023-03-25T16:16:39;16.80;65.20